createdAt,value
2019-05-17T00:00:57.153Z,17.74
2019-05-17T00:03:27.021Z,17.70
2019-05-17T00:05:58.135Z,17.61
2019-05-17T00:08:34.404Z,17.74
2019-05-17T00:11:01.076Z,17.77
2019-05-17T00:13:31.846Z,17.78
2019-05-17T00:16:02.791Z,17.72
2019-05-17T00:18:33.644Z,17.57
2019-05-17T00:21:04.502Z,17.47
2019-05-17T00:23:37.452Z,17.48
2019-05-17T00:26:07.549Z,17.54
2019-05-17T00:28:38.613Z,17.52
2019-05-17T00:31:09.588Z,17.61
2019-05-17T00:33:40.548Z,17.56
2019-05-17T00:36:11.505Z,17.63
2019-05-17T00:38:48.310Z,17.60
2019-05-17T00:41:17.478Z,17.40
2019-05-17T00:43:47.345Z,17.36
2019-05-17T00:46:18.406Z,17.27
2019-05-17T00:48:49.365Z,17.30
2019-05-17T00:51:20.219Z,17.48
2019-05-17T00:53:51.280Z,17.52
2019-05-17T00:56:22.241Z,17.58
2019-05-17T00:58:53.299Z,17.54
2019-05-17T01:01:26.902Z,17.56
2019-05-17T01:03:57.230Z,17.45
2019-05-17T01:06:28.323Z,17.42
2019-05-17T01:09:01.893Z,17.39
2019-05-17T01:11:33.104Z,17.31
2019-05-17T01:14:06.823Z,17.33
2019-05-17T01:16:37.357Z,17.27
2019-05-17T01:19:08.435Z,17.18
2019-05-17T01:21:39.392Z,17.18
2019-05-17T01:24:10.230Z,17.24
2019-05-17T01:26:41.190Z,17.23
2019-05-17T01:29:12.146Z,17.16
2019-05-17T01:31:43.207Z,17.19
2019-05-17T01:34:16.472Z,17.14
2019-05-17T01:36:46.630Z,17.15
2019-05-17T01:39:21.335Z,17.23
2019-05-17T01:41:50.314Z,17.19
2019-05-17T01:44:21.493Z,17.16
2019-05-17T01:46:52.452Z,17.16
2019-05-17T01:49:23.514Z,17.16
2019-05-17T01:51:56.662Z,17.11
2019-05-17T01:54:27.005Z,17.16
2019-05-17T01:56:57.921Z,17.13
2019-05-17T01:59:28.760Z,17.12
2019-05-17T02:02:01.372Z,17.17
2019-05-17T02:04:32.333Z,17.22
2019-05-17T02:07:03.273Z,17.24
2019-05-17T02:09:38.603Z,17.23
2019-05-17T02:12:07.457Z,17.42
2019-05-17T02:14:38.499Z,17.35
2019-05-17T02:17:09.459Z,17.42
2019-05-17T02:19:40.438Z,17.48
2019-05-17T02:22:11.290Z,17.60
2019-05-17T02:24:42.358Z,17.60
2019-05-17T02:27:13.495Z,17.63
2019-05-17T02:29:44.557Z,17.65
2019-05-17T02:32:15.740Z,17.52
2019-05-17T02:34:46.799Z,17.49
2019-05-17T02:37:17.636Z,17.63
2019-05-17T02:39:58.296Z,17.98
2019-05-17T02:42:22.436Z,18.21
2019-05-17T02:44:53.294Z,18.22
2019-05-17T02:47:24.130Z,18.49
2019-05-17T02:49:55.189Z,18.79
2019-05-17T02:52:26.169Z,18.68
2019-05-17T02:54:57.230Z,18.59
2019-05-17T02:57:28.200Z,18.40
2019-05-17T02:59:59.231Z,18.42
2019-05-17T03:02:33.835Z,18.47
2019-05-17T03:05:04.102Z,18.61
2019-05-17T03:07:35.088Z,18.96
2019-05-17T03:10:18.113Z,19.50
2019-05-17T03:12:39.562Z,20.10
2019-05-17T03:15:12.844Z,21.06
2019-05-17T03:17:43.975Z,21.08
2019-05-17T03:20:15.393Z,20.70
2019-05-17T03:22:45.934Z,21.02
2019-05-17T03:25:17.014Z,21.07
2019-05-17T03:27:47.876Z,21.44
2019-05-17T03:30:25.343Z,21.72
2019-05-17T03:32:56.239Z,21.46
2019-05-17T03:35:26.901Z,21.74
2019-05-17T03:37:57.410Z,21.33
2019-05-17T03:40:56.542Z,21.33
2019-05-17T03:43:02.862Z,20.93
2019-05-17T03:45:34.145Z,20.56
2019-05-17T03:48:05.363Z,20.93
2019-05-17T03:50:36.198Z,20.88
2019-05-17T03:53:06.859Z,20.83
2019-05-17T03:55:37.923Z,20.91
2019-05-17T03:58:08.880Z,20.60
2019-05-17T04:00:42.583Z,20.62
2019-05-17T04:03:13.598Z,21.21
2019-05-17T04:05:44.617Z,20.81
2019-05-17T04:08:15.482Z,20.73
2019-05-17T04:10:46.533Z,20.92
2019-05-17T04:13:17.493Z,20.93
2019-05-17T04:15:48.554Z,21.02
2019-05-17T04:18:19.391Z,21.26
2019-05-17T04:20:52.847Z,20.79
2019-05-17T04:23:23.431Z,20.99
2019-05-17T04:25:54.318Z,21.13
2019-05-17T04:28:25.187Z,21.36
2019-05-17T04:30:56.052Z,21.32
2019-05-17T04:33:26.984Z,21.14
2019-05-17T04:35:57.960Z,21.27
2019-05-17T04:38:28.695Z,21.59
2019-05-17T04:41:02.847Z,21.76
2019-05-17T04:43:33.321Z,21.88
2019-05-17T04:46:04.334Z,22.17
2019-05-17T04:48:35.419Z,22.30
2019-05-17T04:51:06.370Z,22.35
2019-05-17T04:53:37.116Z,22.63
2019-05-17T04:56:08.185Z,22.63
2019-05-17T04:58:39.147Z,22.76
2019-05-17T05:01:12.972Z,22.57
2019-05-17T05:03:42.989Z,22.42
2019-05-17T05:06:14.066Z,22.68
2019-05-17T05:08:45.489Z,22.57
2019-05-17T05:11:16.391Z,22.68
2019-05-17T05:13:47.346Z,22.78
2019-05-17T05:16:18.391Z,22.85
2019-05-17T05:18:51.911Z,22.98
2019-05-17T05:21:22.995Z,23.00
2019-05-17T05:23:54.044Z,23.31
2019-05-17T05:26:24.983Z,23.55
2019-05-17T05:28:55.876Z,23.40
2019-05-17T05:31:26.928Z,23.48
2019-05-17T05:33:57.979Z,23.62
2019-05-17T05:36:32.797Z,23.45
2019-05-17T05:39:05.113Z,23.31
2019-05-17T05:41:36.173Z,23.60
2019-05-17T05:44:07.031Z,23.77
2019-05-17T05:46:38.065Z,23.98
2019-05-17T05:49:09.216Z,23.92
2019-05-17T05:51:42.289Z,24.07
2019-05-17T05:54:12.567Z,23.60
2019-05-17T05:56:43.563Z,23.98
2019-05-17T05:59:14.620Z,24.02
2019-05-17T06:01:45.585Z,24.14
2019-05-17T06:04:16.717Z,24.11
2019-05-17T06:06:47.393Z,24.32
2019-05-17T06:09:18.364Z,24.35
2019-05-17T06:11:51.819Z,24.84
2019-05-17T06:14:22.706Z,24.63
2019-05-17T06:16:53.973Z,24.33
2019-05-17T06:19:25.054Z,24.21
2019-05-17T06:21:56.120Z,24.32
2019-05-17T06:24:27.070Z,24.35
2019-05-17T06:26:57.701Z,24.66
2019-05-17T06:29:28.558Z,24.86
2019-05-17T06:31:59.431Z,24.95
2019-05-17T06:34:32.704Z,24.80
2019-05-17T06:37:02.869Z,24.80
2019-05-17T06:39:33.826Z,24.88
2019-05-17T06:42:04.809Z,24.95
2019-05-17T06:44:35.639Z,25.47
2019-05-17T06:47:06.700Z,25.47
2019-05-17T06:49:37.553Z,25.17
2019-05-17T06:52:08.428Z,25.17
2019-05-17T06:54:41.581Z,24.89
2019-05-17T06:57:12.894Z,25.97
2019-05-17T06:59:43.848Z,25.97
2019-05-17T07:02:14.921Z,26.01
2019-05-17T07:04:45.758Z,25.85
2019-05-17T07:07:24.085Z,26.09
2019-05-17T07:09:56.413Z,26.18
2019-05-17T07:12:30.474Z,26.09
2019-05-17T07:15:02.910Z,25.70
2019-05-17T07:17:34.073Z,25.41
2019-05-17T07:20:05.308Z,25.10
2019-05-17T07:22:35.985Z,25.40
2019-05-17T07:25:10.759Z,25.53
2019-05-17T07:27:45.440Z,25.48
2019-05-17T07:30:13.979Z,25.48
2019-05-17T07:32:44.524Z,25.61
2019-05-17T07:35:15.260Z,25.99
2019-05-17T07:37:46.345Z,25.98
2019-05-17T07:40:19.690Z,25.94
2019-05-17T07:42:50.213Z,26.14
2019-05-17T07:45:21.156Z,26.28
2019-05-17T07:47:52.218Z,26.73
2019-05-17T07:50:24.814Z,27.12
2019-05-17T07:52:55.652Z,27.22
2019-05-17T07:55:26.612Z,26.66
2019-05-17T07:58:10.039Z,26.27
2019-05-17T08:00:40.824Z,26.23
2019-05-17T08:03:13.314Z,26.42
2019-05-17T08:05:44.369Z,26.45
2019-05-17T08:08:15.023Z,26.46
2019-05-17T08:10:45.981Z,26.48
2019-05-17T08:13:27.269Z,26.87
2019-05-17T08:15:50.156Z,26.65
2019-05-17T08:18:21.311Z,27.03
2019-05-17T08:20:52.170Z,27.04
2019-05-17T08:23:23.106Z,26.94
2019-05-17T08:26:07.475Z,26.41
2019-05-17T08:28:50.582Z,26.87
2019-05-17T08:31:21.672Z,27.38
2019-05-17T08:33:52.630Z,27.75
2019-05-17T08:36:23.492Z,27.94
2019-05-17T08:38:54.547Z,27.57
2019-05-17T08:41:25.405Z,27.53
2019-05-17T08:43:56.554Z,27.58
2019-05-17T08:46:35.338Z,27.56
2019-05-17T08:49:09.601Z,27.21
2019-05-17T08:51:39.910Z,27.02
2019-05-17T08:54:11.735Z,27.31
2019-05-17T08:56:55.826Z,26.86
2019-05-17T08:59:29.695Z,27.05
2019-05-17T09:02:00.569Z,27.60
2019-05-17T09:04:31.422Z,27.99
2019-05-17T09:07:03.221Z,28.09
2019-05-17T09:09:34.059Z,28.06
2019-05-17T09:12:06.365Z,27.81
2019-05-17T09:17:30.776Z,27.64
2019-05-17T09:20:02.503Z,27.86
2019-05-17T09:22:39.392Z,28.17
2019-05-17T09:25:17.106Z,28.08
2019-05-17T09:27:45.962Z,28.21
2019-05-17T09:30:25.455Z,27.92
2019-05-17T09:33:00.342Z,27.69
2019-05-17T09:35:30.835Z,28.05
2019-05-17T09:38:09.816Z,28.50
2019-05-17T09:40:40.270Z,28.63
2019-05-17T09:43:11.148Z,28.22
2019-05-17T09:45:50.816Z,28.14
2019-05-17T09:48:39.640Z,28.04
2019-05-17T09:51:10.661Z,27.67
2019-05-17T09:53:41.695Z,28.01
2019-05-17T09:56:25.757Z,28.37
2019-05-17T09:59:05.855Z,28.56
2019-05-17T10:01:39.453Z,28.59
2019-05-17T10:04:16.092Z,28.58
2019-05-17T10:06:56.150Z,28.48
2019-05-17T10:09:27.721Z,28.15
2019-05-17T10:12:00.032Z,28.34
2019-05-17T10:14:31.342Z,28.34
2019-05-17T10:17:02.139Z,28.48
2019-05-17T10:19:36.464Z,28.41
2019-05-17T10:22:10.340Z,28.64
2019-05-17T10:24:42.427Z,28.98
2019-05-17T10:27:14.649Z,29.44
2019-05-17T10:29:45.721Z,29.57
2019-05-17T10:32:16.558Z,28.65
2019-05-17T10:34:49.520Z,28.76
2019-05-17T10:37:20.423Z,28.83
2019-05-17T10:39:51.378Z,29.24
2019-05-17T10:42:22.452Z,29.13
2019-05-17T10:44:54.764Z,29.35
2019-05-17T10:47:25.582Z,28.94
2019-05-17T10:49:56.342Z,28.82
2019-05-17T10:52:29.732Z,29.22
2019-05-17T10:54:59.808Z,29.19
2019-05-17T10:57:31.069Z,28.66
2019-05-17T11:00:01.914Z,28.42
2019-05-17T11:02:32.987Z,28.29
2019-05-17T11:05:04.766Z,28.47
2019-05-17T11:07:35.419Z,28.65
2019-05-17T11:10:11.236Z,28.12
2019-05-17T11:12:40.398Z,28.66
2019-05-17T11:15:12.268Z,29.35
2019-05-17T11:17:43.318Z,29.27
2019-05-17T11:20:14.740Z,29.79
2019-05-17T11:22:45.238Z,29.65
2019-05-17T11:25:16.299Z,28.91
2019-05-17T11:28:18.031Z,28.80
2019-05-17T11:30:59.177Z,28.91
2019-05-17T11:33:31.228Z,28.48
2019-05-17T11:36:02.333Z,28.85
2019-05-17T11:38:33.620Z,28.88
2019-05-17T11:41:21.190Z,28.88
2019-05-17T11:44:05.927Z,29.40
2019-05-17T11:46:36.852Z,29.07
2019-05-17T11:49:07.966Z,29.19
2019-05-17T11:51:39.244Z,29.45
2019-05-17T11:54:16.343Z,29.51
2019-05-17T11:56:47.490Z,28.85
2019-05-17T11:59:19.981Z,28.93
2019-05-17T12:01:56.905Z,29.02
2019-05-17T12:04:30.254Z,29.13
2019-05-17T12:07:00.839Z,29.10
2019-05-17T12:09:37.358Z,29.12
2019-05-17T12:12:03.964Z,28.72
2019-05-17T12:14:34.731Z,28.36
2019-05-17T12:17:05.679Z,28.47
2019-05-17T12:19:37.364Z,28.60
2019-05-17T12:22:08.427Z,28.91
2019-05-17T12:24:39.167Z,29.04
2019-05-17T12:27:10.244Z,28.68
2019-05-17T12:29:41.207Z,28.59
2019-05-17T12:32:16.847Z,28.46
2019-05-17T12:34:44.855Z,28.21
2019-05-17T12:37:15.915Z,28.20
2019-05-17T12:39:46.874Z,28.20
2019-05-17T12:42:17.712Z,28.07
2019-05-17T12:44:48.792Z,28.58
2019-05-17T12:47:19.770Z,28.68
2019-05-17T12:49:50.813Z,28.84
2019-05-17T12:52:21.658Z,29.14
2019-05-17T12:54:59.188Z,29.13
2019-05-17T12:57:29.702Z,29.20
2019-05-17T13:00:00.681Z,29.30
2019-05-17T13:02:31.599Z,29.24
2019-05-17T13:05:02.075Z,29.30
2019-05-17T13:07:32.619Z,29.07
2019-05-17T13:10:05.051Z,29.34
2019-05-17T13:12:35.674Z,29.63
2019-05-17T13:15:07.637Z,29.51
2019-05-17T13:17:38.236Z,29.13
2019-05-17T13:20:09.970Z,28.86
2019-05-17T13:22:40.526Z,29.26
2019-05-17T13:25:12.291Z,29.10
2019-05-17T13:27:42.960Z,28.93
2019-05-17T13:30:14.207Z,28.90
2019-05-17T13:32:45.290Z,29.04
2019-05-17T13:35:17.277Z,29.00
2019-05-17T13:37:47.919Z,28.62
2019-05-17T13:40:18.777Z,29.15
2019-05-17T13:42:49.938Z,29.24
2019-05-17T13:45:21.009Z,29.39
2019-05-17T13:47:51.956Z,29.43
2019-05-17T13:50:23.064Z,29.60
2019-05-17T13:52:54.064Z,29.46
2019-05-17T13:55:25.037Z,29.18
2019-05-17T13:57:55.897Z,28.96
2019-05-17T14:00:26.955Z,28.89
2019-05-17T14:02:57.911Z,28.86
2019-05-17T14:05:28.972Z,29.10
2019-05-17T14:07:59.931Z,28.96
2019-05-17T14:10:32.215Z,29.26
2019-05-17T14:13:03.072Z,28.97
2019-05-17T14:15:34.018Z,28.93
2019-05-17T14:18:04.994Z,28.95
2019-05-17T14:20:36.051Z,29.47
2019-05-17T14:23:06.890Z,29.24
2019-05-17T14:25:38.546Z,29.15
2019-05-17T14:28:11.416Z,29.20
2019-05-17T14:30:42.239Z,29.02
2019-05-17T14:33:13.077Z,28.94
2019-05-17T14:35:44.159Z,29.05
2019-05-17T14:38:15.219Z,29.22
2019-05-17T14:41:05.458Z,29.33
2019-05-17T14:43:19.282Z,29.61
2019-05-17T14:45:50.342Z,29.78
2019-05-17T14:48:21.307Z,29.74
2019-05-17T14:50:52.238Z,29.91
2019-05-17T14:53:23.094Z,29.54
2019-05-17T14:55:53.959Z,30.04
2019-05-17T14:58:24.910Z,29.88
2019-05-17T15:00:55.777Z,30.57
2019-05-17T15:03:26.623Z,29.35
2019-05-17T15:05:57.701Z,28.64
2019-05-17T15:08:28.763Z,28.26
2019-05-17T15:10:59.825Z,28.07
2019-05-17T15:13:30.785Z,28.29
2019-05-17T15:16:01.723Z,28.06
2019-05-17T15:18:32.809Z,27.84
2019-05-17T15:21:03.760Z,27.68
2019-05-17T15:23:34.819Z,28.12
2019-05-17T15:26:05.775Z,28.92
2019-05-17T15:28:36.822Z,29.55
2019-05-17T15:31:07.823Z,29.42
2019-05-17T15:33:38.755Z,29.23
2019-05-17T15:36:09.697Z,29.21
2019-05-17T15:38:40.655Z,29.78
2019-05-17T15:41:11.731Z,29.72
2019-05-17T15:43:42.676Z,29.55
2019-05-17T15:46:13.426Z,29.45
2019-05-17T15:48:44.506Z,29.24
2019-05-17T15:51:15.468Z,29.28
2019-05-17T15:53:46.406Z,28.74
2019-05-17T15:56:17.362Z,28.84
2019-05-17T15:58:48.238Z,28.86
2019-05-17T16:01:19.176Z,28.66
2019-05-17T16:03:50.151Z,28.58
2019-05-17T16:06:21.226Z,28.30
2019-05-17T16:08:52.153Z,28.02
2019-05-17T16:11:23.011Z,27.95
2019-05-17T16:13:54.070Z,27.73
2019-05-17T16:16:24.928Z,27.51
2019-05-17T16:18:56.013Z,27.20
2019-05-17T16:21:26.855Z,26.94
2019-05-17T16:23:57.719Z,26.86
2019-05-17T16:26:28.659Z,26.66
2019-05-17T16:28:59.634Z,26.49
2019-05-17T16:31:30.491Z,26.50
2019-05-17T16:34:01.550Z,26.42
2019-05-17T16:36:32.398Z,26.41
2019-05-17T16:39:08.219Z,26.27
2019-05-17T16:41:37.302Z,26.23
2019-05-17T16:44:08.333Z,26.17
2019-05-17T16:46:39.109Z,26.11
2019-05-17T16:49:10.045Z,25.99
2019-05-17T16:51:40.805Z,25.98
2019-05-17T16:54:11.876Z,25.95
2019-05-17T16:56:42.429Z,25.89
2019-05-17T16:59:13.385Z,25.76
2019-05-17T17:01:44.452Z,25.67
2019-05-17T17:04:15.389Z,25.55
2019-05-17T17:06:46.243Z,25.55
2019-05-17T17:09:17.434Z,25.45
2019-05-17T17:11:47.971Z,25.42
2019-05-17T17:14:18.931Z,25.45
2019-05-17T17:16:49.887Z,25.33
2019-05-17T17:19:20.543Z,25.23
2019-05-17T17:21:51.603Z,25.23
2019-05-17T17:24:22.765Z,25.13
2019-05-17T17:26:53.637Z,25.08
2019-05-17T17:29:24.889Z,24.94
2019-05-17T17:31:55.540Z,24.81
2019-05-17T17:34:26.192Z,24.78
2019-05-17T17:36:57.133Z,24.69
2019-05-17T17:39:28.112Z,24.63
2019-05-17T17:41:58.842Z,24.55
2019-05-17T17:44:29.906Z,24.48
2019-05-17T17:47:00.915Z,24.54
2019-05-17T17:49:32.147Z,24.46
2019-05-17T17:52:02.984Z,24.46
2019-05-17T17:54:34.044Z,24.45
2019-05-17T17:57:05.265Z,24.52
2019-05-17T17:59:36.493Z,24.30
2019-05-17T18:02:07.331Z,24.25
2019-05-17T18:04:38.215Z,24.23
2019-05-17T18:07:09.250Z,24.14
2019-05-17T18:09:40.438Z,24.13
2019-05-17T18:12:11.084Z,24.10
2019-05-17T18:14:42.017Z,24.11
2019-05-17T18:17:12.878Z,24.01
2019-05-17T18:19:43.954Z,23.95
2019-05-17T18:22:15.834Z,23.97
2019-05-17T18:24:46.894Z,23.82
2019-05-17T18:27:17.955Z,23.79
2019-05-17T18:29:48.996Z,23.66
2019-05-17T18:32:19.955Z,23.73
2019-05-17T18:34:51.035Z,23.70
2019-05-17T18:37:24.666Z,23.62
2019-05-17T18:39:55.690Z,23.59
2019-05-17T18:42:26.364Z,23.50
2019-05-17T18:44:57.422Z,23.43
2019-05-17T18:47:28.487Z,23.37
2019-05-17T18:49:59.547Z,23.31
2019-05-17T18:52:30.400Z,23.23
2019-05-17T18:55:01.462Z,23.22
2019-05-17T18:57:32.426Z,23.17
2019-05-17T19:00:03.566Z,23.16
2019-05-17T19:02:34.130Z,23.16
2019-05-17T19:05:07.498Z,23.12
2019-05-17T19:07:38.095Z,23.10
2019-05-17T19:10:09.300Z,23.03
2019-05-17T19:12:39.964Z,23.08
2019-05-17T19:15:11.580Z,23.01
2019-05-17T19:17:42.234Z,23.01
2019-05-17T19:20:14.216Z,22.86
2019-05-17T19:22:45.929Z,22.80
2019-05-17T19:25:17.774Z,22.71
2019-05-17T19:27:48.300Z,22.67
2019-05-17T19:30:19.483Z,22.63
2019-05-17T19:32:50.537Z,22.54
2019-05-17T19:35:21.603Z,22.55
2019-05-17T19:37:54.380Z,22.45
2019-05-17T19:40:25.047Z,22.39
2019-05-17T19:42:56.113Z,22.43
2019-05-17T19:45:27.072Z,22.36
2019-05-17T19:47:57.910Z,22.28
2019-05-17T19:50:28.995Z,22.35
2019-05-17T19:52:59.952Z,22.27
2019-05-17T19:55:33.339Z,22.26
2019-05-17T19:58:07.497Z,22.14
2019-05-17T20:00:38.435Z,22.13
2019-05-17T20:03:09.407Z,22.09
2019-05-17T20:05:40.468Z,22.06
2019-05-17T20:08:11.325Z,22.03
2019-05-17T20:10:42.679Z,22.10
2019-05-17T20:13:13.239Z,22.00
2019-05-17T20:15:44.076Z,21.96
2019-05-17T20:18:15.043Z,21.93
2019-05-17T20:20:45.993Z,21.86
2019-05-17T20:23:17.995Z,21.83
2019-05-17T20:25:49.137Z,21.89
2019-05-17T20:28:20.119Z,21.81
2019-05-17T20:30:51.175Z,21.74
2019-05-17T20:33:22.137Z,21.69
2019-05-17T20:35:52.980Z,21.61
2019-05-17T20:38:24.051Z,21.64
2019-05-17T20:40:54.996Z,21.51
2019-05-17T20:43:26.060Z,21.46
2019-05-17T20:45:57.029Z,21.43
2019-05-17T20:48:27.869Z,21.43
2019-05-17T20:50:58.944Z,21.35
2019-05-17T20:53:29.792Z,21.31
2019-05-17T20:56:00.777Z,21.25
2019-05-17T20:58:31.867Z,21.23
2019-05-17T21:01:02.780Z,21.21
2019-05-17T21:03:33.838Z,21.18
2019-05-17T21:06:05.090Z,21.15
2019-05-17T21:08:45.662Z,21.08
2019-05-17T21:11:08.458Z,21.07
2019-05-17T21:13:39.327Z,21.03
2019-05-17T21:16:10.066Z,21.04
2019-05-17T21:18:41.025Z,20.93
2019-05-17T21:21:11.863Z,20.87
2019-05-17T21:23:43.961Z,20.86
2019-05-17T21:26:15.007Z,20.81
2019-05-17T21:28:47.275Z,20.83
2019-05-17T21:31:18.273Z,20.79
2019-05-17T21:33:49.233Z,20.72
2019-05-17T21:36:20.081Z,20.71
2019-05-17T21:38:51.145Z,20.74
2019-05-17T21:41:22.108Z,20.69
2019-05-17T21:43:53.166Z,20.66
2019-05-17T21:46:24.124Z,20.66
2019-05-17T21:48:54.980Z,20.58
2019-05-17T21:51:26.037Z,20.58
2019-05-17T21:53:57.098Z,20.51
2019-05-17T21:56:28.157Z,20.49
2019-05-17T21:58:58.997Z,20.44
2019-05-17T22:01:32.838Z,20.49
2019-05-17T22:04:03.999Z,20.42
2019-05-17T22:06:34.635Z,20.32
2019-05-17T22:09:07.731Z,20.31
2019-05-17T22:11:40.235Z,20.21
2019-05-17T22:14:11.213Z,20.19
2019-05-17T22:16:42.252Z,20.11
2019-05-17T22:19:13.230Z,20.02
2019-05-17T22:21:44.066Z,20.04
2019-05-17T22:24:16.169Z,19.96
2019-05-17T22:26:47.386Z,20.00
2019-05-17T22:29:18.270Z,19.96
2019-05-17T22:31:49.352Z,19.87
2019-05-17T22:34:20.198Z,19.87
2019-05-17T22:36:51.040Z,19.82
2019-05-17T22:39:22.120Z,19.78
2019-05-17T22:41:53.063Z,19.70
2019-05-17T22:44:23.925Z,19.70
2019-05-17T22:46:55.001Z,19.70
2019-05-17T22:49:25.960Z,19.72
2019-05-17T22:51:56.924Z,19.68
2019-05-17T22:54:27.972Z,19.66
2019-05-17T22:56:58.917Z,19.66
2019-05-17T22:59:29.890Z,19.53
2019-05-17T23:02:00.953Z,19.50
2019-05-17T23:04:31.791Z,19.42
2019-05-17T23:07:02.648Z,19.49
2019-05-17T23:09:33.724Z,19.46
2019-05-17T23:12:04.685Z,19.32
2019-05-17T23:14:35.545Z,19.27
2019-05-17T23:17:06.603Z,19.24
2019-05-17T23:19:37.561Z,19.15
2019-05-17T23:22:08.617Z,19.11
2019-05-17T23:24:40.498Z,18.99
2019-05-17T23:27:11.765Z,18.98
2019-05-17T23:29:42.620Z,19.03
2019-05-17T23:32:13.683Z,18.89
2019-05-17T23:34:44.636Z,18.91
2019-05-17T23:37:15.699Z,18.84
2019-05-17T23:39:46.965Z,18.82
2019-05-17T23:42:18.008Z,18.83
2019-05-17T23:44:49.479Z,18.82
2019-05-17T23:47:20.554Z,18.71
2019-05-17T23:49:51.512Z,18.71
2019-05-17T23:52:22.417Z,18.70
2019-05-17T23:54:53.534Z,18.65
2019-05-17T23:57:24.472Z,18.53
2019-05-17T23:59:55.552Z,18.46
